createdAt,value
2022-11-15T00:01:09.939Z,11.70
2022-11-15T00:03:37.849Z,12.00
2022-11-15T00:06:07.204Z,12.00
2022-11-15T00:08:35.413Z,12.00
2022-11-15T00:11:04.809Z,12.00
2022-11-15T00:13:33.044Z,12.20
2022-11-15T00:16:02.212Z,12.10
2022-11-15T00:18:31.138Z,12.00
2022-11-15T00:21:04.929Z,12.50
2022-11-15T00:23:34.663Z,12.40
2022-11-15T00:26:02.742Z,12.60
2022-11-15T00:28:30.526Z,11.90
2022-11-15T00:31:02.950Z,12.40
2022-11-15T00:33:31.065Z,12.40
2022-11-15T00:36:03.085Z,12.40
2022-11-15T00:38:34.542Z,12.30
2022-11-15T00:41:07.885Z,12.30
2022-11-15T00:43:37.604Z,12.50
2022-11-15T00:46:05.588Z,12.40
2022-11-15T00:48:34.127Z,12.20
2022-11-15T00:51:01.909Z,12.40
2022-11-15T00:53:30.338Z,12.20
2022-11-15T00:55:59.716Z,12.10
2022-11-15T00:58:27.421Z,12.20
2022-11-15T01:00:55.658Z,11.70
2022-11-15T01:03:23.462Z,12.20
2022-11-15T01:05:51.197Z,12.30
2022-11-15T01:08:18.923Z,11.50
2022-11-15T01:10:46.637Z,12.10
2022-11-15T01:13:15.719Z,12.20
2022-11-15T01:15:43.727Z,12.00
2022-11-15T01:18:11.766Z,12.40
2022-11-15T01:20:42.766Z,12.30
2022-11-15T01:23:10.546Z,12.30
2022-11-15T01:25:38.287Z,12.30
2022-11-15T01:28:06.399Z,12.30
2022-11-15T01:30:35.438Z,12.30
2022-11-15T01:33:03.122Z,12.10
2022-11-15T01:35:30.870Z,11.90
2022-11-15T01:37:58.579Z,12.20
2022-11-15T01:40:26.402Z,12.20
2022-11-15T01:42:54.111Z,11.90
2022-11-15T01:45:21.969Z,11.80
2022-11-15T01:47:54.155Z,12.20
2022-11-15T01:50:25.744Z,12.00
2022-11-15T01:52:53.594Z,11.90
2022-11-15T01:55:26.753Z,12.10
2022-11-15T01:57:59.078Z,12.40
2022-11-15T02:00:28.272Z,12.30
2022-11-15T02:02:57.339Z,12.30
2022-11-15T02:05:25.047Z,12.20
2022-11-15T02:07:53.462Z,12.20
2022-11-15T02:10:22.715Z,11.90
2022-11-15T02:12:51.349Z,11.80
2022-11-15T02:15:19.383Z,11.80
2022-11-15T02:18:05.217Z,11.90
2022-11-15T02:20:43.959Z,11.20
2022-11-15T02:23:46.070Z,11.70
2022-11-15T02:26:47.198Z,11.70
2022-11-15T02:29:21.218Z,11.60
2022-11-15T02:31:55.496Z,11.40
2022-11-15T02:34:30.208Z,11.30
2022-11-15T02:37:08.906Z,11.40
2022-11-15T02:39:41.404Z,11.50
2022-11-15T02:42:33.170Z,11.50
2022-11-15T02:45:04.535Z,11.60
2022-11-15T02:47:36.729Z,11.20
2022-11-15T02:50:09.038Z,11.40
2022-11-15T02:52:36.727Z,11.40
2022-11-15T02:55:05.009Z,11.40
2022-11-15T02:57:44.067Z,11.40
2022-11-15T03:00:14.646Z,11.40
2022-11-15T03:02:59.419Z,11.50
2022-11-15T03:05:37.103Z,11.60
2022-11-15T03:08:12.028Z,11.50
2022-11-15T03:10:50.504Z,11.70
2022-11-15T03:13:26.236Z,11.60
2022-11-15T03:15:59.663Z,11.70
2022-11-15T03:18:34.520Z,11.70
2022-11-15T03:21:06.302Z,11.40
2022-11-15T03:23:36.395Z,11.60
2022-11-15T03:26:06.932Z,11.40
2022-11-15T03:28:38.972Z,11.50
2022-11-15T03:31:28.070Z,11.30
2022-11-15T03:33:59.863Z,11.40
2022-11-15T03:36:28.922Z,11.60
2022-11-15T03:39:01.556Z,11.60
2022-11-15T03:41:35.363Z,11.20
2022-11-15T03:44:11.087Z,11.40
2022-11-15T03:46:43.071Z,11.40
2022-11-15T03:49:17.139Z,11.40
2022-11-15T03:51:44.929Z,11.70
2022-11-15T03:54:14.207Z,11.60
2022-11-15T03:56:41.924Z,11.60
2022-11-15T03:59:09.663Z,11.80
2022-11-15T04:01:37.479Z,11.50
2022-11-15T04:04:05.352Z,11.70
2022-11-15T04:06:34.469Z,11.60
2022-11-15T04:09:02.183Z,11.60
2022-11-15T04:11:29.871Z,11.50
2022-11-15T04:13:57.639Z,11.30
2022-11-15T04:16:25.328Z,10.80
2022-11-15T04:19:06.998Z,11.50
2022-11-15T04:21:53.777Z,11.50
2022-11-15T04:24:21.511Z,11.60
2022-11-15T04:26:49.255Z,11.70
2022-11-15T04:29:34.509Z,11.60
2022-11-15T04:32:02.483Z,11.60
2022-11-15T04:34:30.260Z,11.60
2022-11-15T04:37:14.344Z,11.70
2022-11-15T04:39:42.767Z,11.90
2022-11-15T04:42:11.021Z,11.80
2022-11-15T04:44:38.758Z,11.70
2022-11-15T04:47:06.850Z,11.60
2022-11-15T04:49:34.753Z,11.70
2022-11-15T04:52:03.828Z,11.70
2022-11-15T04:54:31.709Z,11.70
2022-11-15T04:56:59.455Z,11.70
2022-11-15T04:59:27.638Z,11.80
2022-11-15T05:01:55.346Z,11.80
2022-11-15T05:04:22.138Z,11.70
2022-11-15T05:06:51.815Z,11.60
2022-11-15T05:09:22.669Z,11.80
2022-11-15T05:11:50.572Z,11.70
2022-11-15T05:14:18.544Z,11.80
2022-11-15T05:16:46.344Z,11.90
2022-11-15T05:19:14.152Z,11.90
2022-11-15T05:21:42.176Z,11.70
2022-11-15T05:24:11.944Z,11.80
2022-11-15T05:26:41.057Z,11.60
2022-11-15T05:29:11.210Z,11.50
2022-11-15T05:31:43.029Z,11.30
2022-11-15T05:34:11.406Z,11.30
2022-11-15T05:36:40.687Z,11.50
2022-11-15T05:39:09.937Z,11.50
2022-11-15T05:41:43.030Z,11.50
2022-11-15T05:44:13.566Z,11.50
2022-11-15T05:46:44.015Z,11.60
2022-11-15T05:49:16.376Z,11.60
2022-11-15T05:51:46.638Z,11.70
2022-11-15T05:54:14.786Z,11.80
2022-11-15T05:56:44.587Z,11.70
2022-11-15T05:59:13.264Z,11.60
2022-11-15T06:01:41.801Z,11.60
2022-11-15T06:04:09.571Z,11.60
2022-11-15T06:06:37.296Z,11.40
2022-11-15T06:09:05.237Z,11.60
2022-11-15T06:11:33.022Z,11.80
2022-11-15T06:14:02.109Z,11.70
2022-11-15T06:16:29.828Z,11.50
2022-11-15T06:18:57.770Z,11.70
2022-11-15T06:21:28.710Z,11.70
2022-11-15T06:23:56.575Z,11.60
2022-11-15T06:26:24.314Z,11.60
2022-11-15T06:28:52.056Z,11.60
2022-11-15T06:31:21.137Z,11.50
2022-11-15T06:33:50.392Z,11.60
2022-11-15T06:36:19.068Z,11.70
2022-11-15T06:38:47.245Z,11.70
2022-11-15T06:41:16.039Z,11.80
2022-11-15T06:43:44.105Z,11.90
2022-11-15T06:46:12.088Z,11.80
2022-11-15T06:48:41.161Z,11.70
2022-11-15T06:51:09.125Z,11.70
2022-11-15T06:53:37.321Z,11.60
2022-11-15T06:56:06.835Z,11.60
2022-11-15T06:58:34.566Z,11.60
2022-11-15T07:01:03.284Z,11.70
2022-11-15T07:03:31.466Z,11.60
2022-11-15T07:06:06.772Z,11.60
2022-11-15T07:08:35.377Z,11.60
2022-11-15T07:11:04.609Z,11.70
2022-11-15T07:13:34.719Z,12.00
2022-11-15T07:16:04.389Z,12.00
2022-11-15T07:18:32.145Z,12.00
2022-11-15T07:21:04.678Z,12.10
2022-11-15T07:23:32.831Z,12.10
2022-11-15T07:26:01.837Z,12.20
2022-11-15T07:28:30.296Z,12.50
2022-11-15T07:30:58.378Z,12.20
2022-11-15T07:33:26.124Z,12.50
2022-11-15T07:35:53.865Z,12.60
2022-11-15T07:38:22.954Z,12.50
2022-11-15T07:40:58.551Z,12.60
2022-11-15T07:43:26.808Z,12.70
2022-11-15T07:45:58.821Z,12.60
2022-11-15T07:48:35.660Z,13.00
2022-11-15T07:51:13.758Z,13.10
2022-11-15T07:53:43.351Z,13.20
2022-11-15T07:56:11.840Z,13.20
2022-11-15T07:58:39.767Z,13.30
2022-11-15T08:01:08.809Z,13.20
2022-11-15T08:03:37.013Z,13.10
2022-11-15T08:06:05.139Z,13.20
2022-11-15T08:08:32.870Z,13.20
2022-11-15T08:11:02.412Z,13.20
2022-11-15T08:13:30.542Z,13.30
2022-11-15T08:16:01.020Z,13.30
2022-11-15T08:18:28.795Z,13.40
2022-11-15T08:21:01.271Z,13.60
2022-11-15T08:23:29.795Z,13.70
2022-11-15T08:26:03.598Z,13.60
2022-11-15T08:28:32.307Z,13.40
2022-11-15T08:31:00.176Z,13.50
2022-11-15T08:33:28.713Z,13.40
2022-11-15T08:35:59.591Z,13.50
2022-11-15T08:38:29.709Z,13.70
2022-11-15T08:41:05.395Z,13.60
2022-11-15T08:43:33.572Z,13.80
2022-11-15T08:46:01.587Z,13.80
2022-11-15T08:48:29.547Z,13.70
2022-11-15T08:50:57.955Z,13.80
2022-11-15T08:53:25.662Z,13.70
2022-11-15T08:55:53.367Z,13.70
2022-11-15T08:58:22.485Z,13.70
2022-11-15T09:00:50.463Z,13.60
2022-11-15T09:03:18.199Z,14.00
2022-11-15T09:05:45.943Z,13.90
2022-11-15T09:08:32.773Z,13.90
2022-11-15T09:11:05.314Z,14.00
2022-11-15T09:13:34.696Z,14.20
2022-11-15T09:16:03.467Z,13.80
2022-11-15T09:18:31.556Z,14.50
2022-11-15T09:21:00.518Z,14.30
2022-11-15T09:23:28.993Z,14.20
2022-11-15T09:26:00.819Z,14.50
2022-11-15T09:28:28.767Z,13.70
2022-11-15T09:31:00.542Z,14.30
2022-11-15T09:33:29.432Z,14.30
2022-11-15T09:36:02.116Z,14.00
2022-11-15T09:38:30.524Z,14.30
2022-11-15T09:41:24.530Z,15.30
2022-11-15T09:44:03.992Z,15.00
2022-11-15T09:46:44.727Z,15.40
2022-11-15T09:49:16.034Z,15.30
2022-11-15T09:51:50.853Z,15.10
2022-11-15T09:57:17.039Z,15.20
2022-11-15T09:59:57.112Z,15.40
2022-11-15T10:02:52.291Z,15.60
2022-11-15T10:05:23.610Z,15.50
2022-11-15T10:07:58.478Z,15.50
2022-11-15T10:10:36.744Z,15.50
2022-11-15T10:13:05.291Z,15.20
2022-11-15T10:15:33.671Z,15.10
2022-11-15T10:18:10.713Z,15.20
2022-11-15T10:20:47.979Z,15.10
2022-11-15T10:23:18.086Z,15.20
2022-11-15T10:25:45.935Z,15.10
2022-11-15T10:28:19.170Z,15.20
2022-11-15T10:30:49.042Z,15.10
2022-11-15T10:33:32.153Z,15.10
2022-11-15T10:36:21.838Z,15.30
2022-11-15T10:38:59.745Z,14.80
2022-11-15T10:41:38.590Z,15.20
2022-11-15T10:44:20.137Z,14.90
2022-11-15T10:46:51.347Z,15.10
2022-11-15T10:49:22.776Z,15.10
2022-11-15T10:51:55.365Z,15.30
2022-11-15T10:54:26.292Z,15.00
2022-11-15T10:56:56.678Z,15.10
2022-11-15T10:59:28.998Z,15.60
2022-11-15T11:01:56.927Z,15.50
2022-11-15T11:04:26.017Z,15.40
2022-11-15T11:06:56.418Z,15.70
2022-11-15T11:09:31.347Z,15.60
2022-11-15T11:11:59.094Z,15.70
2022-11-15T11:14:31.795Z,15.80
2022-11-15T11:17:07.887Z,15.50
2022-11-15T11:19:54.511Z,15.70
2022-11-15T11:22:30.038Z,15.40
2022-11-15T11:25:09.217Z,15.40
2022-11-15T11:27:49.354Z,15.10
2022-11-15T11:30:20.679Z,15.20
2022-11-15T11:33:14.914Z,15.40
2022-11-15T11:35:53.653Z,15.60
2022-11-15T11:38:40.523Z,15.60
2022-11-15T11:41:33.583Z,15.50
2022-11-15T11:44:09.535Z,15.70
2022-11-15T11:46:46.837Z,16.20
2022-11-15T11:49:19.837Z,16.40
2022-11-15T11:51:55.095Z,16.70
2022-11-15T11:54:28.465Z,16.60
2022-11-15T11:56:59.259Z,16.10
2022-11-15T11:59:37.605Z,16.60
2022-11-15T12:02:17.523Z,16.30
2022-11-15T12:04:50.404Z,16.40
2022-11-15T12:07:23.985Z,16.50
2022-11-15T12:09:57.626Z,16.30
2022-11-15T12:12:33.772Z,15.80
2022-11-15T12:15:06.020Z,16.10
2022-11-15T12:17:34.486Z,16.00
2022-11-15T12:20:07.243Z,16.10
2022-11-15T12:22:43.767Z,16.20
2022-11-15T12:25:20.114Z,16.30
2022-11-15T12:27:52.472Z,16.10
2022-11-15T12:30:23.355Z,16.10
2022-11-15T12:32:55.553Z,16.10
2022-11-15T12:35:27.437Z,16.20
2022-11-15T12:37:57.338Z,16.00
2022-11-15T12:40:37.406Z,16.10
2022-11-15T12:43:34.886Z,15.90
2022-11-15T12:46:08.086Z,16.00
2022-11-15T12:48:53.708Z,15.40
2022-11-15T12:51:40.071Z,15.80
2022-11-15T12:54:41.161Z,15.50
2022-11-15T12:57:35.178Z,15.80
2022-11-15T13:00:07.686Z,15.60
2022-11-15T13:02:37.347Z,15.70
2022-11-15T13:05:49.685Z,15.80
2022-11-15T13:08:37.375Z,15.60
2022-11-15T13:11:38.589Z,15.60
2022-11-15T13:14:42.870Z,15.30
2022-11-15T13:17:31.604Z,15.30
2022-11-15T13:20:17.419Z,15.50
2022-11-15T13:22:52.817Z,15.10
2022-11-15T13:25:42.934Z,14.70
2022-11-15T13:28:21.779Z,15.10
2022-11-15T13:30:55.302Z,15.30
2022-11-15T13:33:28.380Z,15.40
2022-11-15T13:36:00.593Z,15.10
2022-11-15T13:38:30.265Z,15.50
2022-11-15T13:40:59.318Z,15.40
2022-11-15T13:43:36.134Z,15.10
2022-11-15T13:46:17.511Z,15.30
2022-11-15T13:48:46.770Z,15.30
2022-11-15T13:51:30.527Z,15.00
2022-11-15T13:54:02.540Z,15.30
2022-11-15T13:56:32.843Z,15.10
2022-11-15T13:59:00.674Z,15.20
2022-11-15T14:01:33.843Z,15.10
2022-11-15T14:04:03.113Z,15.30
2022-11-15T14:06:32.410Z,15.20
2022-11-15T14:09:06.300Z,15.50
2022-11-15T14:11:34.319Z,15.30
2022-11-15T14:14:13.321Z,15.50
2022-11-15T14:16:44.298Z,15.40
2022-11-15T14:19:13.875Z,15.30
2022-11-15T14:22:14.945Z,15.20
2022-11-15T14:24:44.343Z,15.30
2022-11-15T14:27:29.076Z,15.20
2022-11-15T14:29:57.259Z,15.30
2022-11-15T14:32:28.564Z,14.90
2022-11-15T14:34:58.726Z,15.00
2022-11-15T14:37:28.427Z,15.20
2022-11-15T14:39:56.649Z,15.00
2022-11-15T14:42:25.278Z,15.00
2022-11-15T14:44:53.525Z,15.10
2022-11-15T14:47:21.460Z,14.80
2022-11-15T14:49:50.704Z,14.80
2022-11-15T14:52:32.244Z,14.80
2022-11-15T14:55:02.159Z,14.80
2022-11-15T14:57:30.117Z,14.90
2022-11-15T14:59:57.997Z,14.90
2022-11-15T15:02:28.731Z,15.20
2022-11-15T15:05:01.872Z,14.90
2022-11-15T15:07:29.790Z,15.00
2022-11-15T15:10:17.766Z,14.90
2022-11-15T15:12:45.495Z,14.70
2022-11-15T15:15:17.856Z,14.80
2022-11-15T15:17:45.958Z,14.60
2022-11-15T15:20:15.121Z,14.60
2022-11-15T15:22:42.892Z,14.10
2022-11-15T15:25:24.298Z,14.50
2022-11-15T15:27:52.032Z,14.60
2022-11-15T15:30:19.881Z,14.90
2022-11-15T15:32:47.628Z,14.70
2022-11-15T15:35:18.230Z,14.50
2022-11-15T15:37:47.595Z,14.80
2022-11-15T15:40:18.883Z,14.40
2022-11-15T15:42:46.712Z,14.90
2022-11-15T15:45:15.834Z,15.00
2022-11-15T15:47:44.399Z,14.60
2022-11-15T15:50:23.075Z,14.80
2022-11-15T15:52:51.490Z,15.00
2022-11-15T15:55:19.247Z,15.10
2022-11-15T15:57:47.192Z,15.00
2022-11-15T16:00:16.107Z,14.60
2022-11-15T16:02:44.198Z,14.70
2022-11-15T16:05:13.104Z,14.70
2022-11-15T16:07:44.407Z,14.50
2022-11-15T16:10:21.437Z,14.70
2022-11-15T16:12:50.330Z,14.30
2022-11-15T16:15:18.525Z,14.60
2022-11-15T16:17:50.153Z,14.70
2022-11-15T16:20:32.392Z,14.40
2022-11-15T16:23:07.514Z,14.50
2022-11-15T16:25:41.267Z,14.60
2022-11-15T16:28:21.693Z,14.50
2022-11-15T16:30:55.507Z,14.60
2022-11-15T16:33:24.881Z,14.40
2022-11-15T16:35:52.718Z,14.70
2022-11-15T16:38:22.124Z,14.80
2022-11-15T16:40:50.283Z,14.70
2022-11-15T16:43:18.340Z,14.80
2022-11-15T16:45:46.091Z,14.10
2022-11-15T16:48:25.139Z,14.80
2022-11-15T16:50:57.126Z,14.70
2022-11-15T16:53:26.685Z,15.10
2022-11-15T16:55:55.564Z,15.10
2022-11-15T16:58:24.191Z,14.70
2022-11-15T17:00:54.040Z,14.90
2022-11-15T17:03:22.403Z,14.90
2022-11-15T17:05:51.063Z,15.00
2022-11-15T17:08:20.650Z,14.70
2022-11-15T17:10:49.822Z,14.70
2022-11-15T17:13:17.690Z,14.60
2022-11-15T17:15:45.482Z,14.90
2022-11-15T17:18:15.346Z,14.90
2022-11-15T17:20:44.295Z,15.00
2022-11-15T17:23:15.268Z,14.80
2022-11-15T17:25:43.538Z,14.90
2022-11-15T17:28:12.878Z,14.90
2022-11-15T17:30:43.030Z,14.90
2022-11-15T17:33:10.771Z,14.70
2022-11-15T17:35:38.690Z,14.70
2022-11-15T17:38:06.471Z,14.80
2022-11-15T17:40:34.300Z,14.80
2022-11-15T17:43:02.463Z,14.90
2022-11-15T17:45:31.553Z,14.90
2022-11-15T17:47:59.326Z,14.50
2022-11-15T17:50:27.120Z,14.60
2022-11-15T17:52:55.142Z,14.90
2022-11-15T17:55:23.005Z,14.80
2022-11-15T17:57:50.945Z,14.70
2022-11-15T18:00:20.873Z,14.90
2022-11-15T18:02:50.096Z,14.90
2022-11-15T18:05:17.966Z,14.90
2022-11-15T18:07:45.907Z,15.10
2022-11-15T18:10:13.654Z,15.10
2022-11-15T18:12:41.632Z,14.90
2022-11-15T18:15:10.965Z,15.00
2022-11-15T18:17:38.674Z,14.80
2022-11-15T18:20:10.071Z,14.90
2022-11-15T18:22:37.757Z,15.00
2022-11-15T18:25:06.180Z,14.90
2022-11-15T18:27:33.979Z,15.00
2022-11-15T18:30:01.784Z,15.10
2022-11-15T18:32:29.570Z,15.00
2022-11-15T18:34:57.509Z,14.90
2022-11-15T18:37:26.707Z,14.90
2022-11-15T18:39:54.551Z,14.90
2022-11-15T18:42:22.409Z,15.20
2022-11-15T18:44:50.372Z,14.90
2022-11-15T18:47:18.103Z,15.20
2022-11-15T18:49:46.100Z,15.00
2022-11-15T18:52:13.959Z,15.10
2022-11-15T18:54:43.235Z,15.10
2022-11-15T18:57:11.226Z,14.90
2022-11-15T18:59:38.975Z,15.30
2022-11-15T19:02:07.238Z,15.40
2022-11-15T19:04:35.033Z,15.30
2022-11-15T19:07:02.904Z,15.30
2022-11-15T19:09:32.663Z,15.40
2022-11-15T19:12:02.307Z,14.80
2022-11-15T19:14:30.613Z,14.90
2022-11-15T19:16:58.667Z,15.10
2022-11-15T19:19:36.658Z,15.00
2022-11-15T19:22:04.534Z,15.10
2022-11-15T19:24:32.515Z,15.10
2022-11-15T19:27:00.568Z,14.80
2022-11-15T19:29:28.567Z,14.80
2022-11-15T19:31:56.427Z,14.80
2022-11-15T19:34:24.360Z,14.90
2022-11-15T19:36:53.802Z,14.90
2022-11-15T19:39:21.775Z,15.20
2022-11-15T19:41:50.112Z,14.90
2022-11-15T19:44:18.949Z,15.00
2022-11-15T19:46:47.011Z,15.00
2022-11-15T19:49:15.063Z,14.70
2022-11-15T19:51:45.058Z,14.90
2022-11-15T19:54:16.775Z,14.30
2022-11-15T19:56:44.888Z,14.80
2022-11-15T19:59:13.520Z,14.70
2022-11-15T20:01:42.591Z,14.70
2022-11-15T20:04:10.765Z,14.70
2022-11-15T20:06:40.877Z,14.50
2022-11-15T20:09:09.351Z,14.70
2022-11-15T20:11:39.336Z,14.70
2022-11-15T20:14:09.366Z,14.70
2022-11-15T20:16:37.517Z,14.70
2022-11-15T20:19:05.994Z,14.80
2022-11-15T20:21:34.188Z,14.70
2022-11-15T20:24:02.186Z,14.60
2022-11-15T20:26:31.996Z,14.70
2022-11-15T20:29:02.306Z,14.80
2022-11-15T20:31:31.324Z,14.70
2022-11-15T20:33:59.283Z,14.80
2022-11-15T20:36:27.103Z,14.50
2022-11-15T20:38:58.919Z,14.50
2022-11-15T20:41:27.207Z,14.10
2022-11-15T20:43:55.059Z,14.40
2022-11-15T20:46:24.147Z,14.40
2022-11-15T20:48:52.088Z,14.50
2022-11-15T20:51:20.427Z,14.50
2022-11-15T20:53:48.602Z,14.70
2022-11-15T20:56:18.402Z,14.50
2022-11-15T20:58:47.084Z,14.40
2022-11-15T21:01:16.360Z,14.50
2022-11-15T21:03:45.703Z,14.60
2022-11-15T21:06:13.532Z,14.50
2022-11-15T21:08:59.365Z,14.50
2022-11-15T21:11:44.984Z,14.50
2022-11-15T21:14:12.826Z,14.40
2022-11-15T21:16:40.693Z,14.40
2022-11-15T21:19:10.076Z,14.50
2022-11-15T21:21:38.240Z,14.30
2022-11-15T21:24:07.801Z,14.40
2022-11-15T21:26:36.236Z,14.40
2022-11-15T21:29:04.543Z,14.50
2022-11-15T21:31:32.897Z,14.40
2022-11-15T21:34:02.187Z,14.30
2022-11-15T21:36:31.728Z,14.20
2022-11-15T21:39:01.892Z,14.20
2022-11-15T21:41:29.671Z,14.30
2022-11-15T21:43:58.974Z,14.30
2022-11-15T21:46:27.016Z,13.90
2022-11-15T21:48:54.716Z,14.10
2022-11-15T21:51:22.907Z,14.30
2022-11-15T21:53:55.826Z,14.10
2022-11-15T21:56:23.756Z,14.00
2022-11-15T21:58:51.593Z,14.20
2022-11-15T22:01:37.090Z,14.10
2022-11-15T22:04:06.178Z,13.90
2022-11-15T22:06:34.783Z,14.00
2022-11-15T22:09:04.825Z,13.70
2022-11-15T22:11:33.112Z,13.90
2022-11-15T22:14:01.108Z,13.70
2022-11-15T22:16:28.957Z,13.90
2022-11-15T22:18:57.014Z,13.40
2022-11-15T22:21:24.993Z,13.50
2022-11-15T22:23:52.937Z,13.60
2022-11-15T22:26:24.017Z,13.50
2022-11-15T22:28:52.603Z,13.50
2022-11-15T22:31:20.500Z,13.30
2022-11-15T22:33:48.351Z,13.30
2022-11-15T22:36:16.477Z,13.60
2022-11-15T22:38:44.622Z,13.40
2022-11-15T22:41:12.718Z,13.30
2022-11-15T22:43:41.898Z,13.30
2022-11-15T22:46:10.644Z,13.50
2022-11-15T22:48:39.886Z,13.40
2022-11-15T22:51:08.449Z,13.20
2022-11-15T22:53:36.325Z,13.10
2022-11-15T22:56:06.518Z,13.00
2022-11-15T22:58:35.000Z,13.30
2022-11-15T23:01:06.093Z,13.20
2022-11-15T23:03:34.709Z,13.20
2022-11-15T23:06:04.699Z,13.20
2022-11-15T23:08:32.630Z,13.60
2022-11-15T23:11:19.267Z,13.40
2022-11-15T23:13:47.353Z,13.40
2022-11-15T23:16:34.175Z,13.50
2022-11-15T23:19:04.578Z,13.40
2022-11-15T23:21:51.721Z,13.50
2022-11-15T23:24:20.168Z,13.40
2022-11-15T23:26:49.855Z,13.30
2022-11-15T23:29:19.560Z,13.00
2022-11-15T23:32:03.016Z,13.40
2022-11-15T23:34:31.476Z,13.30
2022-11-15T23:36:59.957Z,13.30
2022-11-15T23:39:27.870Z,13.00
2022-11-15T23:41:55.674Z,13.30
2022-11-15T23:44:23.740Z,12.90
2022-11-15T23:46:53.396Z,13.00
2022-11-15T23:49:21.906Z,13.00
2022-11-15T23:51:50.066Z,12.80
2022-11-15T23:54:17.880Z,12.80
2022-11-15T23:56:45.838Z,12.80
2022-11-15T23:59:13.699Z,13.00
